Time;durP1;ratioP1;P1;durP2;ratioP2;P2;SDS_P1;SDS_P2;PMS_P1;PMS_P2;Temp;Humidity;BMP_temperature;BMP_pressure;BME280_temperature;BME280_humidity;BME280_pressure;Samples;Min_cycle;Max_cycle;Signal;HPM_P1;HPM_P2
2022/10/01 00:03:26;;;;;;;;;;;18.90;47.80;;;;;;8329462;28;20000;-43
2022/10/01 00:07:26;;;;;;;;;;;18.90;47.80;;;;;;8329902;28;19917;-43
2022/10/01 00:11:27;;;;;;;;;;;18.90;47.80;;;;;;8330028;28;20350;-42
2022/10/01 00:15:27;;;;;;;;;;;18.90;47.80;;;;;;8329329;28;19922;-43
2022/10/01 00:19:28;;;;;;;;;;;18.90;47.80;;;;;;8329926;28;20024;-43
2022/10/01 00:23:28;;;;;;;;;;;18.90;47.80;;;;;;8329876;28;19971;-42
2022/10/01 00:27:30;;;;;;;;;;;18.90;47.80;;;;;;8329246;28;19925;-43
2022/10/01 00:31:31;;;;;;;;;;;18.80;47.70;;;;;;8329806;28;19940;-43
2022/10/01 00:35:31;;;;;;;;;;;18.90;47.80;;;;;;8328975;28;19917;-43
2022/10/01 00:39:32;;;;;;;;;;;18.80;47.70;;;;;;8335028;28;19926;-43
2022/10/01 00:43:34;;;;;;;;;;;18.80;47.70;;;;;;8335718;28;20052;-42
2022/10/01 00:47:39;;;;;;;;;;;18.80;47.70;;;;;;8335145;28;19921;-43
2022/10/01 00:51:42;;;;;;;;;;;18.80;47.70;;;;;;8335873;28;19917;-43
2022/10/01 00:55:45;;;;;;;;;;;18.80;47.70;;;;;;8335610;28;19924;-43
2022/10/01 00:59:46;;;;;;;;;;;18.80;47.70;;;;;;8334895;28;19983;-43
2022/10/01 01:03:46;;;;;;;;;;;18.80;47.70;;;;;;8335221;28;20332;-43
2022/10/01 01:07:48;;;;;;;;;;;18.80;47.70;;;;;;8334944;28;20003;-43
2022/10/01 01:11:49;;;;;;;;;;;18.80;47.70;;;;;;8325006;28;20263;-43
2022/10/01 01:16:05;;;;;;;;;;;18.80;47.60;;;;;;8334746;28;20004;-43
2022/10/01 01:20:31;;;;;;;;;;;18.80;47.60;;;;;;8334934;28;20036;-43
2022/10/01 01:24:31;;;;;;;;;;;18.80;47.70;;;;;;8334436;28;19971;-43
2022/10/01 01:28:34;;;;;;;;;;;18.80;47.70;;;;;;8334324;28;19921;-43
2022/10/01 01:32:39;;;;;;;;;;;18.80;47.60;;;;;;8333777;28;19918;-43
2022/10/01 01:36:43;;;;;;;;;;;18.80;47.60;;;;;;8334062;28;20012;-43
2022/10/01 01:40:45;;;;;;;;;;;18.80;47.70;;;;;;8333864;28;19964;-43
2022/10/01 01:44:46;;;;;;;;;;;18.70;48.10;;;;;;8333799;28;19979;-43
2022/10/01 01:48:49;;;;;;;;;;;18.70;47.60;;;;;;8332903;28;19917;-43
2022/10/01 01:52:52;;;;;;;;;;;18.70;47.60;;;;;;8333579;28;19956;-43
2022/10/01 01:56:54;;;;;;;;;;;18.70;47.60;;;;;;8333178;28;19939;-43
2022/10/01 02:00:55;;;;;;;;;;;18.70;47.60;;;;;;8333274;28;19972;-43
2022/10/01 02:04:59;;;;;;;;;;;18.70;47.60;;;;;;8333592;28;20325;-43
2022/10/01 02:09:10;;;;;;;;;;;18.70;47.60;;;;;;8332677;28;19917;-43
2022/10/01 02:13:29;;;;;;;;;;;18.70;47.60;;;;;;8332962;28;19917;-43
2022/10/01 02:17:49;;;;;;;;;;;18.70;47.60;;;;;;8332931;28;19924;-43
2022/10/01 02:21:58;;;;;;;;;;;18.70;47.60;;;;;;8332647;28;19929;-43
2022/10/01 02:26:03;;;;;;;;;;;18.70;47.60;;;;;;8332714;28;20443;-44
2022/10/01 02:30:08;;;;;;;;;;;18.70;47.60;;;;;;8332205;28;19917;-43
2022/10/01 02:34:09;;;;;;;;;;;18.70;47.60;;;;;;8332506;28;19921;-44
2022/10/01 02:38:10;;;;;;;;;;;18.70;47.60;;;;;;8332071;28;19921;-43
2022/10/01 02:42:12;;;;;;;;;;;18.70;47.60;;;;;;8331710;28;20394;-43
2022/10/01 02:46:14;;;;;;;;;;;18.70;47.60;;;;;;8331874;28;19917;-43
2022/10/01 02:50:15;;;;;;;;;;;18.70;47.60;;;;;;8332071;28;20011;-43
2022/10/01 02:54:23;;;;;;;;;;;18.70;47.70;;;;;;8331162;28;19922;-43
2022/10/01 02:58:23;;;;;;;;;;;18.70;47.70;;;;;;8331527;28;19925;-43
2022/10/01 03:02:27;;;;;;;;;;;18.60;47.60;;;;;;8331466;28;20012;-43
2022/10/01 03:06:28;;;;;;;;;;;18.70;47.70;;;;;;8330926;28;19923;-43
2022/10/01 03:10:28;;;;;;;;;;;18.70;47.70;;;;;;8331318;28;20370;-43
2022/10/01 03:14:31;;;;;;;;;;;18.60;47.70;;;;;;8331200;28;20274;-43
2022/10/01 03:18:31;;;;;;;;;;;18.60;47.70;;;;;;8330686;28;19925;-43
2022/10/01 03:22:32;;;;;;;;;;;18.60;47.70;;;;;;8331115;28;19923;-43
2022/10/01 03:26:33;;;;;;;;;;;18.60;47.70;;;;;;8330382;28;19917;-43
2022/10/01 03:30:34;;;;;;;;;;;18.60;47.70;;;;;;8330892;28;19920;-43
2022/10/01 03:34:34;;;;;;;;;;;18.60;47.70;;;;;;8330506;28;20275;-42
2022/10/01 03:38:35;;;;;;;;;;;18.60;47.70;;;;;;8329829;28;20374;-43
2022/10/01 03:42:35;;;;;;;;;;;18.60;47.70;;;;;;8330714;28;20267;-43
2022/10/01 03:46:37;;;;;;;;;;;18.60;47.70;;;;;;8329747;28;21298;-43
2022/10/01 03:50:38;;;;;;;;;;;18.60;47.70;;;;;;8329966;28;19913;-44
2022/10/01 03:54:38;;;;;;;;;;;18.60;47.70;;;;;;8330085;28;19917;-43
2022/10/01 03:58:39;;;;;;;;;;;18.60;47.70;;;;;;8330178;28;19951;-42
2022/10/01 04:02:39;;;;;;;;;;;18.60;48.20;;;;;;8329589;28;19917;-43
2022/10/01 04:06:40;;;;;;;;;;;18.60;47.70;;;;;;8319622;28;19913;-43
2022/10/01 04:10:40;;;;;;;;;;;18.60;47.80;;;;;;8330103;28;19917;-43
2022/10/01 04:14:41;;;;;;;;;;;18.60;47.70;;;;;;8335602;28;19921;-43
2022/10/01 04:18:41;;;;;;;;;;;18.60;47.70;;;;;;8336637;28;19931;-43
2022/10/01 04:22:43;;;;;;;;;;;18.60;47.80;;;;;;8336375;28;19924;-43
2022/10/01 04:26:43;;;;;;;;;;;18.60;47.80;;;;;;8335804;28;19914;-42
2022/10/01 04:30:44;;;;;;;;;;;18.60;47.70;;;;;;8336395;28;19983;-43
2022/10/01 04:34:51;;;;;;;;;;;18.60;47.70;;;;;;8336259;28;20389;-43
2022/10/01 04:38:52;;;;;;;;;;;18.60;47.70;;;;;;8335392;28;19940;-43
2022/10/01 04:42:53;;;;;;;;;;;18.60;47.70;;;;;;8336113;28;19917;-43
2022/10/01 04:46:53;;;;;;;;;;;18.60;47.80;;;;;;8335594;28;20000;-43
2022/10/01 04:50:54;;;;;;;;;;;18.60;47.70;;;;;;8335191;28;19913;-43
2022/10/01 04:54:54;;;;;;;;;;;18.60;47.70;;;;;;8335379;28;20374;-43
2022/10/01 04:58:55;;;;;;;;;;;18.60;47.80;;;;;;8335151;28;19924;-43
2022/10/01 05:02:55;;;;;;;;;;;18.60;47.70;;;;;;8334688;28;19999;-43
2022/10/01 05:06:56;;;;;;;;;;;18.60;47.80;;;;;;8335004;28;19917;-43
2022/10/01 05:10:57;;;;;;;;;;;18.60;47.80;;;;;;8335075;28;20370;-43
2022/10/01 05:14:58;;;;;;;;;;;18.60;47.80;;;;;;8334318;28;19949;-43
2022/10/01 05:18:58;;;;;;;;;;;18.60;47.80;;;;;;8334471;28;19932;-43
2022/10/01 05:22:59;;;;;;;;;;;18.60;47.80;;;;;;8333401;28;19960;-43
2022/10/01 05:26:59;;;;;;;;;;;18.60;47.80;;;;;;8333841;28;20366;-43
2022/10/01 05:31:00;;;;;;;;;;;18.60;47.80;;;;;;8334421;28;19913;-43
2022/10/01 05:35:01;;;;;;;;;;;18.60;47.80;;;;;;8334176;28;19925;-43
2022/10/01 05:39:01;;;;;;;;;;;18.60;47.80;;;;;;8333750;28;19932;-43
2022/10/01 05:43:03;;;;;;;;;;;18.60;47.80;;;;;;8333948;28;20270;-43
2022/10/01 05:47:04;;;;;;;;;;;18.60;47.80;;;;;;8334079;28;19913;-43
2022/10/01 05:51:06;;;;;;;;;;;18.60;47.80;;;;;;8333422;28;19914;-43
2022/10/01 05:55:08;;;;;;;;;;;18.60;47.80;;;;;;8333742;28;19928;-43
2022/10/01 05:59:08;;;;;;;;;;;18.60;47.80;;;;;;8333484;28;20397;-43
2022/10/01 06:03:11;;;;;;;;;;;18.60;47.80;;;;;;8332771;28;19921;-44
2022/10/01 06:07:12;;;;;;;;;;;18.60;47.80;;;;;;8333701;28;19913;-42
2022/10/01 06:11:13;;;;;;;;;;;18.60;47.80;;;;;;8333540;28;19935;-43
2022/10/01 06:15:14;;;;;;;;;;;18.50;47.80;;;;;;8332457;28;19933;-43
2022/10/01 06:19:16;;;;;;;;;;;18.60;48.00;;;;;;8332671;28;20294;-43
2022/10/01 06:23:16;;;;;;;;;;;18.50;47.70;;;;;;8332528;28;20004;-44
2022/10/01 06:27:17;;;;;;;;;;;18.50;47.70;;;;;;8331036;28;20289;-43
2022/10/01 06:31:18;;;;;;;;;;;18.60;47.80;;;;;;8332529;28;19996;-43
2022/10/01 06:35:19;;;;;;;;;;;18.60;47.80;;;;;;8331958;28;20397;-43
2022/10/01 06:39:20;;;;;;;;;;;18.50;47.70;;;;;;8331510;28;20018;-43
2022/10/01 06:43:21;;;;;;;;;;;18.60;47.80;;;;;;8332145;28;19917;-43
2022/10/01 06:47:21;;;;;;;;;;;18.60;47.80;;;;;;8332179;28;20255;-43
2022/10/01 06:52:47;;;;;;;;;;;18.50;47.80;;;;;;8331323;28;19952;-44
2022/10/01 06:55:43;;;;;;;;;;;18.60;47.80;;;;;;8331841;28;19924;-43
2022/10/01 06:59:43;;;;;;;;;;;18.50;47.80;;;;;;8331036;28;19936;-43
2022/10/01 07:03:44;;;;;;;;;;;18.60;47.80;;;;;;8331270;28;20004;-43
2022/10/01 07:07:44;;;;;;;;;;;18.60;47.80;;;;;;8316165;28;19937;-44
2022/10/01 07:11:45;;;;;;;;;;;18.60;47.80;;;;;;8330977;28;20362;-45
2022/10/01 07:15:45;;;;;;;;;;;18.50;47.80;;;;;;8330919;28;19976;-45
2022/10/01 07:19:46;;;;;;;;;;;18.50;47.80;;;;;;8348473;28;19932;-44
2022/10/01 07:23:46;;;;;;;;;;;18.60;47.80;;;;;;8363274;28;19924;-44
2022/10/01 07:27:47;;;;;;;;;;;18.50;47.80;;;;;;8363686;28;19952;-44
2022/10/01 07:31:47;;;;;;;;;;;18.60;47.90;;;;;;8363840;28;19944;-44
2022/10/01 07:35:48;;;;;;;;;;;18.50;47.90;;;;;;8362968;28;19921;-44
2022/10/01 07:39:48;;;;;;;;;;;18.50;47.90;;;;;;8363393;28;19925;-44
2022/10/01 07:43:49;;;;;;;;;;;18.50;47.90;;;;;;8363404;28;19947;-44
2022/10/01 07:47:53;;;;;;;;;;;18.50;47.90;;;;;;8362522;28;19959;-44
2022/10/01 07:51:54;;;;;;;;;;;18.50;47.90;;;;;;8363393;28;19917;-45
2022/10/01 07:55:55;;;;;;;;;;;18.60;48.00;;;;;;8363340;28;20246;-45
2022/10/01 07:59:56;;;;;;;;;;;18.50;48.00;;;;;;8362388;28;19925;-44
2022/10/01 08:03:56;;;;;;;;;;;18.50;48.00;;;;;;8363136;28;20230;-45
2022/10/01 08:08:00;;;;;;;;;;;18.50;48.00;;;;;;8363193;28;19913;-45
2022/10/01 08:12:02;;;;;;;;;;;18.50;48.00;;;;;;8362677;28;20324;-44
2022/10/01 08:16:03;;;;;;;;;;;18.50;48.00;;;;;;8362805;28;20020;-44
2022/10/01 08:20:04;;;;;;;;;;;18.50;48.00;;;;;;8362838;28;20377;-45
2022/10/01 08:24:04;;;;;;;;;;;18.50;48.00;;;;;;8361958;28;20313;-44
2022/10/01 08:28:05;;;;;;;;;;;18.60;48.00;;;;;;8362837;28;20007;-44
2022/10/01 08:32:06;;;;;;;;;;;18.60;48.00;;;;;;8362694;28;20243;-44
2022/10/01 08:36:07;;;;;;;;;;;18.60;48.00;;;;;;8361773;28;19921;-45
2022/10/01 08:40:08;;;;;;;;;;;18.60;48.00;;;;;;8362652;28;19924;-44
2022/10/01 08:44:14;;;;;;;;;;;18.60;48.00;;;;;;8362439;28;19959;-44
2022/10/01 08:48:27;;;;;;;;;;;18.60;48.00;;;;;;8362125;28;19924;-45
2022/10/01 08:52:29;;;;;;;;;;;18.60;48.00;;;;;;8362516;28;19924;-44
2022/10/01 08:56:32;;;;;;;;;;;18.60;48.00;;;;;;8362213;28;19947;-44
2022/10/01 09:00:35;;;;;;;;;;;18.60;48.00;;;;;;8367176;28;19925;-44
2022/10/01 09:04:35;;;;;;;;;;;18.60;48.00;;;;;;8368133;28;19944;-44
2022/10/01 09:08:45;;;;;;;;;;;18.60;48.00;;;;;;8367610;28;20388;-44
2022/10/01 09:13:05;;;;;;;;;;;18.60;48.00;;;;;;8368440;28;19967;-44
2022/10/01 09:17:37;;;;;;;;;;;18.60;48.00;;;;;;8367869;28;20008;-45
2022/10/01 09:21:46;;;;;;;;;;;18.60;48.00;;;;;;8344244;28;20328;-45
2022/10/01 09:25:49;;;;;;;;;;;18.60;48.00;;;;;;8367550;28;19999;-44
2022/10/01 09:29:51;;;;;;;;;;;18.60;48.00;;;;;;8366960;28;19913;-46
2022/10/01 09:34:01;;;;;;;;;;;18.60;48.00;;;;;;8367565;28;19916;-45
2022/10/01 09:38:06;;;;;;;;;;;18.70;48.00;;;;;;8367392;28;19925;-44
2022/10/01 09:42:06;;;;;;;;;;;18.60;48.00;;;;;;8366602;28;19964;-44
2022/10/01 09:46:12;;;;;;;;;;;18.70;47.90;;;;;;8366812;28;19924;-45
2022/10/01 09:50:14;;;;;;;;;;;18.70;48.00;;;;;;8366813;28;20282;-46
2022/10/01 09:54:18;;;;;;;;;;;18.70;48.00;;;;;;8366308;28;19967;-45
2022/10/01 09:58:23;;;;;;;;;;;18.70;48.00;;;;;;8366816;28;19913;-44
2022/10/01 10:02:30;;;;;;;;;;;18.70;47.90;;;;;;8354449;28;19948;-44
2022/10/01 10:06:30;;;;;;;;;;;18.70;47.90;;;;;;8332801;28;19917;-44
2022/10/01 10:10:38;;;;;;;;;;;18.70;48.10;;;;;;8332653;28;19913;-44
2022/10/01 10:14:43;;;;;;;;;;;18.70;48.10;;;;;;8334995;28;19925;-44
2022/10/01 10:18:47;;;;;;;;;;;18.70;48.10;;;;;;8333393;28;19921;-44
2022/10/01 10:22:48;;;;;;;;;;;18.80;48.20;;;;;;8332863;28;19917;-44
2022/10/01 10:26:53;;;;;;;;;;;18.80;48.10;;;;;;8332277;28;20329;-44
2022/10/01 10:30:55;;;;;;;;;;;18.80;48.10;;;;;;8348861;28;19924;-45
2022/10/01 10:34:58;;;;;;;;;;;18.80;48.10;;;;;;8365527;28;20358;-44
2022/10/01 10:38:59;;;;;;;;;;;18.80;48.00;;;;;;8364833;28;19925;-44
2022/10/01 10:42:59;;;;;;;;;;;18.90;48.10;;;;;;8365225;28;19924;-44
2022/10/01 10:47:01;;;;;;;;;;;18.90;48.10;;;;;;8365036;28;19959;-44
2022/10/01 10:51:04;;;;;;;;;;;18.90;48.00;;;;;;8364437;28;20012;-44
2022/10/01 10:55:25;;;;;;;;;;;18.90;48.60;;;;;;8364559;28;19917;-44
2022/10/01 10:59:25;;;;;;;;;;;18.90;48.00;;;;;;8364582;28;19954;-45
2022/10/01 11:03:27;;;;;;;;;;;18.90;48.00;;;;;;8364139;28;20377;-45
2022/10/01 11:07:28;;;;;;;;;;;18.90;48.00;;;;;;8364340;28;19969;-44
2022/10/01 11:11:32;;;;;;;;;;;18.90;48.00;;;;;;8364970;28;19912;-44
2022/10/01 11:15:33;;;;;;;;;;;18.90;48.10;;;;;;8364277;28;20292;-46
2022/10/01 11:19:43;;;;;;;;;;;18.90;48.00;;;;;;8364072;28;19921;-44
2022/10/01 11:24:10;;;;;;;;;;;18.90;48.00;;;;;;8362812;28;19967;-44
2022/10/01 11:28:32;;;;;;;;;;;18.90;48.00;;;;;;8361522;28;19917;-44
2022/10/01 11:32:44;;;;;;;;;;;18.90;48.00;;;;;;8363275;28;19991;-44
2022/10/01 11:36:51;;;;;;;;;;;18.90;48.00;;;;;;8363768;28;20020;-43
2022/10/01 11:41:06;;;;;;;;;;;18.90;48.00;;;;;;8363783;28;20429;-44
2022/10/01 11:45:15;;;;;;;;;;;18.90;48.00;;;;;;8363346;28;20336;-44
2022/10/01 11:49:21;;;;;;;;;;;18.80;48.00;;;;;;8363837;28;19913;-46
2022/10/01 11:53:29;;;;;;;;;;;18.80;48.00;;;;;;8363241;28;19998;-44
2022/10/01 12:02:00;;;;;;;;;;;18.80;48.10;;;;;;8363003;28;20400;-44
2022/10/01 12:06:01;;;;;;;;;;;18.80;48.10;;;;;;8362557;28;20324;-44
2022/10/01 12:10:20;;;;;;;;;;;18.80;48.10;;;;;;8363194;28;19917;-45
2022/10/01 12:14:23;;;;;;;;;;;18.80;48.10;;;;;;8363164;28;20350;-45
2022/10/01 12:18:28;;;;;;;;;;;18.80;48.10;;;;;;8362216;28;19929;-45
2022/10/01 12:22:30;;;;;;;;;;;18.80;48.20;;;;;;8362691;28;20369;-44
2022/10/01 12:26:30;;;;;;;;;;;18.80;48.20;;;;;;8362830;28;19942;-44
2022/10/01 12:30:35;;;;;;;;;;;18.80;48.20;;;;;;8362206;28;19971;-47
2022/10/01 12:34:48;;;;;;;;;;;18.80;48.20;;;;;;8372006;28;19912;-44
2022/10/01 12:38:48;;;;;;;;;;;18.80;48.20;;;;;;8368720;28;19971;-45
2022/10/01 12:43:07;;;;;;;;;;;18.80;48.20;;;;;;8368724;28;19916;-45
2022/10/01 12:47:13;;;;;;;;;;;18.80;48.20;;;;;;8368841;28;19917;-45
2022/10/01 12:51:28;;;;;;;;;;;18.80;48.20;;;;;;8368105;28;20298;-44
2022/10/01 12:55:49;;;;;;;;;;;18.80;48.20;;;;;;8368562;28;19913;-44
2022/10/01 12:59:58;;;;;;;;;;;18.80;48.20;;;;;;8368092;28;20373;-44
2022/10/01 13:04:22;;;;;;;;;;;18.80;48.20;;;;;;8368394;28;19956;-45
2022/10/01 13:08:41;;;;;;;;;;;18.80;48.20;;;;;;8367925;28;20389;-45
2022/10/01 13:12:41;;;;;;;;;;;18.80;48.20;;;;;;8345321;28;20402;-44
2022/10/01 13:17:00;;;;;;;;;;;18.80;48.20;;;;;;8335126;28;20000;-44
2022/10/01 13:21:18;;;;;;;;;;;18.90;48.30;;;;;;8334158;28;20161;-45
2022/10/01 13:25:23;;;;;;;;;;;18.80;48.30;;;;;;8334869;28;19917;-44
2022/10/01 13:29:35;;;;;;;;;;;18.80;48.30;;;;;;8334606;28;19917;-44
2022/10/01 13:33:36;;;;;;;;;;;18.80;48.30;;;;;;8334148;28;20345;-44
2022/10/01 13:37:37;;;;;;;;;;;18.80;48.30;;;;;;8334181;28;19955;-44
2022/10/01 13:41:38;;;;;;;;;;;18.80;48.30;;;;;;8333754;28;20003;-45
2022/10/01 13:45:40;;;;;;;;;;;18.80;48.30;;;;;;8332919;28;19921;-44
2022/10/01 13:49:41;;;;;;;;;;;18.80;48.30;;;;;;8334202;28;19917;-45
2022/10/01 13:53:41;;;;;;;;;;;18.80;48.40;;;;;;8333266;28;20385;-44
2022/10/01 13:57:42;;;;;;;;;;;18.80;48.40;;;;;;8333876;28;19917;-43
2022/10/01 14:01:42;;;;;;;;;;;18.80;48.40;;;;;;8333395;28;19932;-44
2022/10/01 14:05:43;;;;;;;;;;;18.80;48.40;;;;;;8332881;28;19925;-44
2022/10/01 14:10:10;;;;;;;;;;;18.80;48.40;;;;;;8333440;28;19913;-43
2022/10/01 14:18:34;;;;;;;;;;;18.80;48.50;;;;;;8332600;28;19980;-44
2022/10/01 14:22:38;;;;;;;;;;;18.80;48.50;;;;;;8332920;28;20358;-44
2022/10/01 14:26:47;;;;;;;;;;;18.80;48.50;;;;;;8332398;28;20397;-44
2022/10/01 14:30:48;;;;;;;;;;;18.80;48.50;;;;;;8332592;28;19991;-44
2022/10/01 14:34:55;;;;;;;;;;;18.80;48.60;;;;;;8332747;28;19920;-44
2022/10/01 14:39:03;;;;;;;;;;;18.80;48.60;;;;;;8331756;28;19932;-44
2022/10/01 14:43:14;;;;;;;;;;;18.80;48.60;;;;;;8332397;28;20274;-45
2022/10/01 14:47:19;;;;;;;;;;;18.80;48.60;;;;;;8332242;28;20326;-43
2022/10/01 14:51:24;;;;;;;;;;;18.80;48.60;;;;;;8331499;28;19985;-43
2022/10/01 14:55:25;;;;;;;;;;;18.80;48.60;;;;;;8331982;28;19913;-44
2022/10/01 14:59:31;;;;;;;;;;;18.90;48.70;;;;;;8331542;28;19925;-44
2022/10/01 15:03:39;;;;;;;;;;;18.80;48.60;;;;;;8331254;28;19917;-43
2022/10/01 15:07:39;;;;;;;;;;;18.80;48.70;;;;;;8331356;28;19924;-45
2022/10/01 15:11:41;;;;;;;;;;;18.80;48.70;;;;;;8330877;28;20013;-43
2022/10/01 15:15:41;;;;;;;;;;;18.80;48.70;;;;;;8331308;28;19921;-43
2022/10/01 15:19:43;;;;;;;;;;;18.80;48.70;;;;;;8330895;28;20341;-44
2022/10/01 15:23:44;;;;;;;;;;;18.80;48.70;;;;;;8330577;28;19928;-43
2022/10/01 15:27:45;;;;;;;;;;;18.90;48.70;;;;;;8331149;28;19968;-43
2022/10/01 15:31:47;;;;;;;;;;;18.80;48.60;;;;;;8330872;28;19917;-44
2022/10/01 15:35:47;;;;;;;;;;;18.80;48.70;;;;;;8330240;28;19921;-43
2022/10/01 15:39:50;;;;;;;;;;;18.80;48.70;;;;;;8330338;28;19948;-43
2022/10/01 15:43:51;;;;;;;;;;;18.80;48.70;;;;;;8330564;28;19939;-44
2022/10/01 15:47:55;;;;;;;;;;;18.80;48.70;;;;;;8329916;28;19925;-43
2022/10/01 15:56:18;;;;;;;;;;;18.80;48.80;;;;;;8330314;28;20003;-47
2022/10/01 16:00:21;;;;;;;;;;;18.80;48.80;;;;;;8329896;28;20488;-45
2022/10/01 16:04:21;;;;;;;;;;;18.80;48.90;;;;;;8329415;28;19917;-44
2022/10/01 16:08:24;;;;;;;;;;;18.80;49.00;;;;;;8336481;28;19921;-45
2022/10/01 16:12:27;;;;;;;;;;;18.80;48.90;;;;;;8340383;28;19924;-46
2022/10/01 16:16:28;;;;;;;;;;;18.80;49.00;;;;;;8340867;28;19913;-45
2022/10/01 16:20:31;;;;;;;;;;;18.80;49.00;;;;;;8341023;28;19944;-45
2022/10/01 16:24:39;;;;;;;;;;;18.80;49.00;;;;;;8340303;28;19963;-45
2022/10/01 16:28:40;;;;;;;;;;;18.80;49.00;;;;;;8340658;28;19917;-45
2022/10/01 16:32:40;;;;;;;;;;;18.80;49.10;;;;;;8340214;28;20416;-46
2022/10/01 16:36:41;;;;;;;;;;;18.80;49.10;;;;;;8340310;28;19932;-45
2022/10/01 16:40:42;;;;;;;;;;;18.80;49.10;;;;;;8340544;28;19929;-44
2022/10/01 16:44:43;;;;;;;;;;;18.80;49.10;;;;;;8340050;28;19917;-45
2022/10/01 16:48:46;;;;;;;;;;;18.80;49.20;;;;;;8340210;28;19917;-44
2022/10/01 16:52:46;;;;;;;;;;;18.80;49.20;;;;;;8340423;28;19913;-45
2022/10/01 16:56:49;;;;;;;;;;;18.80;49.20;;;;;;8339664;28;19921;-44
2022/10/01 17:00:50;;;;;;;;;;;18.80;49.20;;;;;;8340182;28;19951;-45
2022/10/01 17:04:50;;;;;;;;;;;18.80;49.20;;;;;;8340132;28;19917;-45
2022/10/01 17:08:50;;;;;;;;;;;18.80;49.30;;;;;;8339578;28;20007;-44
2022/10/01 17:12:51;;;;;;;;;;;18.80;49.30;;;;;;8340164;28;19920;-45
2022/10/01 17:16:52;;;;;;;;;;;18.80;49.30;;;;;;8340049;28;19917;-44
2022/10/01 17:20:52;;;;;;;;;;;18.80;49.30;;;;;;8336057;28;20350;-44
2022/10/01 17:24:53;;;;;;;;;;;18.80;49.30;;;;;;8334764;28;19924;-44
2022/10/01 17:28:53;;;;;;;;;;;18.80;49.30;;;;;;8335027;28;19947;-45
2022/10/01 17:32:54;;;;;;;;;;;18.80;49.40;;;;;;8333996;28;19994;-44
2022/10/01 17:36:55;;;;;;;;;;;18.80;49.40;;;;;;8334277;28;19921;-45
2022/10/01 17:40:58;;;;;;;;;;;18.80;49.40;;;;;;8334621;28;20297;-44
2022/10/01 17:44:58;;;;;;;;;;;18.80;49.40;;;;;;8333489;28;19925;-45
2022/10/01 17:48:59;;;;;;;;;;;18.80;49.50;;;;;;8333924;28;19952;-45
2022/10/01 17:53:00;;;;;;;;;;;18.80;49.40;;;;;;8333746;28;20003;-45
2022/10/01 17:57:00;;;;;;;;;;;18.80;49.40;;;;;;8333293;28;19924;-45
2022/10/01 18:01:01;;;;;;;;;;;18.90;49.40;;;;;;8333642;28;20444;-44
2022/10/01 18:05:07;;;;;;;;;;;18.90;49.50;;;;;;8333365;28;19971;-45
2022/10/01 18:09:07;;;;;;;;;;;18.80;49.50;;;;;;8332977;28;20012;-45
2022/10/01 18:13:07;;;;;;;;;;;18.80;49.50;;;;;;8333126;28;20374;-46
2022/10/01 18:17:08;;;;;;;;;;;18.80;49.50;;;;;;8333141;28;20297;-45
2022/10/01 18:21:10;;;;;;;;;;;18.80;49.50;;;;;;8332700;28;20488;-44
2022/10/01 18:25:12;;;;;;;;;;;18.90;49.60;;;;;;8332921;28;19925;-45
2022/10/01 18:29:18;;;;;;;;;;;18.80;49.50;;;;;;8332934;28;19917;-45
2022/10/01 18:33:19;;;;;;;;;;;18.90;49.60;;;;;;8331698;28;20378;-45
2022/10/01 18:37:20;;;;;;;;;;;18.90;49.60;;;;;;8332685;28;19928;-45
2022/10/01 18:41:25;;;;;;;;;;;18.90;49.60;;;;;;8332654;28;19925;-45
2022/10/01 18:45:40;;;;;;;;;;;18.80;49.60;;;;;;8331789;28;19917;-44
2022/10/01 18:49:44;;;;;;;;;;;18.80;49.60;;;;;;8332065;28;20340;-45
2022/10/01 18:53:47;;;;;;;;;;;18.90;49.70;;;;;;8331539;28;20393;-46
2022/10/01 18:57:50;;;;;;;;;;;18.90;49.60;;;;;;8331801;28;19917;-44
2022/10/01 19:01:54;;;;;;;;;;;18.90;49.70;;;;;;8331917;28;20002;-44
2022/10/01 19:06:13;;;;;;;;;;;18.80;49.70;;;;;;8305017;28;20004;-46
2022/10/01 19:10:16;;;;;;;;;;;18.80;49.70;;;;;;8322181;28;19924;-45
2022/10/01 19:14:40;;;;;;;;;;;18.90;49.80;;;;;;8331491;28;20413;-45
2022/10/01 19:19:00;;;;;;;;;;;18.90;49.80;;;;;;8330850;28;19961;-45
2022/10/01 19:23:22;;;;;;;;;;;18.90;49.80;;;;;;8331279;28;19921;-45
2022/10/01 19:27:31;;;;;;;;;;;18.90;49.80;;;;;;8330930;28;19921;-46
2022/10/01 19:31:38;;;;;;;;;;;18.90;49.80;;;;;;8331231;28;19963;-44
2022/10/01 19:35:40;;;;;;;;;;;18.90;49.80;;;;;;8330329;28;19921;-44
2022/10/01 19:39:42;;;;;;;;;;;18.90;49.80;;;;;;8335438;28;19932;-45
2022/10/01 19:43:42;;;;;;;;;;;18.90;49.80;;;;;;8329640;28;19913;-45
2022/10/01 19:47:47;;;;;;;;;;;18.90;49.80;;;;;;8330013;28;20028;-44
2022/10/01 19:51:55;;;;;;;;;;;18.90;49.80;;;;;;8330599;28;19921;-45
2022/10/01 19:55:57;;;;;;;;;;;18.90;49.80;;;;;;8331672;28;19992;-45
2022/10/01 20:00:03;;;;;;;;;;;18.90;49.80;;;;;;8329675;28;19925;-45
2022/10/01 20:04:05;;;;;;;;;;;18.90;50.40;;;;;;8330442;28;19947;-46
2022/10/01 20:08:23;;;;;;;;;;;18.90;49.90;;;;;;8330078;28;20000;-45
2022/10/01 20:12:34;;;;;;;;;;;18.90;50.00;;;;;;8329884;28;19921;-46
2022/10/01 20:16:46;;;;;;;;;;;18.90;50.00;;;;;;8330323;28;19955;-45
2022/10/01 20:21:05;;;;;;;;;;;18.90;49.90;;;;;;8329460;28;20378;-46
2022/10/01 20:25:24;;;;;;;;;;;18.90;49.90;;;;;;8329906;28;20374;-44
2022/10/01 20:29:27;;;;;;;;;;;18.90;49.90;;;;;;8329727;28;19924;-45
2022/10/01 20:33:42;;;;;;;;;;;18.90;50.00;;;;;;8328881;28;19921;-45
2022/10/01 20:37:53;;;;;;;;;;;18.90;49.90;;;;;;8329789;28;19936;-45
2022/10/01 20:41:54;;;;;;;;;;;18.90;49.90;;;;;;8329127;28;19932;-46
2022/10/01 20:45:56;;;;;;;;;;;18.90;49.90;;;;;;8329532;28;19921;-45
2022/10/01 20:50:01;;;;;;;;;;;18.90;49.90;;;;;;8329657;28;19968;-46
2022/10/01 20:54:05;;;;;;;;;;;18.90;49.90;;;;;;8330371;28;19971;-45
2022/10/01 20:58:27;;;;;;;;;;;18.90;49.90;;;;;;8335840;28;19921;-45
2022/10/01 21:02:53;;;;;;;;;;;18.90;49.80;;;;;;8344381;28;19929;-45
2022/10/01 21:06:58;;;;;;;;;;;18.90;49.80;;;;;;8299298;28;19918;-45
2022/10/01 21:11:02;;;;;;;;;;;18.90;49.80;;;;;;8325334;28;19924;-46
2022/10/01 21:15:03;;;;;;;;;;;18.90;49.80;;;;;;8334646;28;19917;-47
2022/10/01 21:19:22;;;;;;;;;;;18.90;49.90;;;;;;8334861;28;19921;-44
2022/10/01 21:23:22;;;;;;;;;;;18.90;49.90;;;;;;8334900;28;19918;-45
2022/10/01 21:27:33;;;;;;;;;;;18.90;49.90;;;;;;8334515;28;19921;-44
2022/10/01 21:31:42;;;;;;;;;;;18.90;49.90;;;;;;8334616;28;19956;-45
2022/10/01 21:35:51;;;;;;;;;;;18.90;49.80;;;;;;8333944;28;20366;-45
2022/10/01 21:40:09;;;;;;;;;;;18.90;49.90;;;;;;8334251;28;20413;-46
2022/10/01 21:44:28;;;;;;;;;;;18.90;49.90;;;;;;8334120;28;19963;-44
2022/10/01 21:48:31;;;;;;;;;;;18.90;49.90;;;;;;8333578;28;20008;-44
2022/10/01 21:52:47;;;;;;;;;;;18.90;50.00;;;;;;8332800;28;20366;-45
2022/10/01 21:56:53;;;;;;;;;;;18.90;49.90;;;;;;8333479;28;20338;-45
2022/10/01 22:01:07;;;;;;;;;;;18.90;49.90;;;;;;8330772;28;19929;-44
2022/10/01 22:05:28;;;;;;;;;;;18.90;50.00;;;;;;8340800;28;19917;-44
2022/10/01 22:09:28;;;;;;;;;;;18.90;50.00;;;;;;8332931;28;19956;-44
2022/10/01 22:13:31;;;;;;;;;;;18.90;50.00;;;;;;8333461;28;19921;-45
2022/10/01 22:17:32;;;;;;;;;;;18.90;49.90;;;;;;8332740;28;19917;-44
2022/10/01 22:21:36;;;;;;;;;;;18.90;50.00;;;;;;8333304;28;20464;-45
2022/10/01 22:25:42;;;;;;;;;;;18.90;50.00;;;;;;8333069;28;19917;-45
2022/10/01 22:30:12;;;;;;;;;;;18.90;49.90;;;;;;8332314;28;19928;-45
2022/10/01 22:34:32;;;;;;;;;;;18.90;50.00;;;;;;8319513;28;19924;-44
2022/10/01 22:38:52;;;;;;;;;;;18.90;50.50;;;;;;8332244;28;20003;-45
2022/10/01 22:43:10;;;;;;;;;;;18.90;50.00;;;;;;8332548;28;19975;-44
2022/10/01 22:47:16;;;;;;;;;;;18.90;50.10;;;;;;8332513;28;20378;-45
2022/10/01 22:51:32;;;;;;;;;;;18.90;50.10;;;;;;8331617;28;19917;-45
2022/10/01 22:55:48;;;;;;;;;;;18.90;50.10;;;;;;8332433;28;20550;-44
2022/10/01 23:00:03;;;;;;;;;;;18.90;50.10;;;;;;8331179;28;19931;-44
2022/10/01 23:04:25;;;;;;;;;;;18.90;50.10;;;;;;8331917;28;20003;-44
2022/10/01 23:08:41;;;;;;;;;;;18.90;50.10;;;;;;8331776;28;20394;-45
2022/10/01 23:12:56;;;;;;;;;;;18.90;50.10;;;;;;8331330;28;19921;-44
2022/10/01 23:17:03;;;;;;;;;;;18.90;50.10;;;;;;8331305;28;20004;-45
2022/10/01 23:21:17;;;;;;;;;;;18.90;50.10;;;;;;8330557;28;19936;-44
2022/10/01 23:25:22;;;;;;;;;;;18.90;50.10;;;;;;8330972;28;19924;-44
2022/10/01 23:29:43;;;;;;;;;;;18.90;50.10;;;;;;8331467;28;19921;-45
2022/10/01 23:33:51;;;;;;;;;;;18.90;50.10;;;;;;8331096;28;19917;-45
2022/10/01 23:38:16;;;;;;;;;;;18.90;50.70;;;;;;8330687;28;20350;-44
2022/10/01 23:42:25;;;;;;;;;;;18.90;50.10;;;;;;8330218;28;19925;-45
2022/10/01 23:46:29;;;;;;;;;;;18.90;50.20;;;;;;8330476;28;19924;-45
2022/10/01 23:50:42;;;;;;;;;;;18.90;50.10;;;;;;8330383;28;19914;-45
2022/10/01 23:54:42;;;;;;;;;;;18.90;50.10;;;;;;8330015;28;19924;-44
2022/10/01 23:58:48;;;;;;;;;;;18.90;50.20;;;;;;8330410;28;19917;-44
